createdAt,value
2017-10-05T00:00:06.815Z,98.00
2017-10-05T00:02:36.536Z,98.20
2017-10-05T00:05:05.521Z,97.90
2017-10-05T00:07:34.488Z,97.80
2017-10-05T00:10:03.456Z,97.60
2017-10-05T00:12:32.854Z,97.70
2017-10-05T00:15:01.836Z,97.70
2017-10-05T00:17:30.826Z,97.70
2017-10-05T00:20:00.572Z,98.20
2017-10-05T00:22:29.526Z,97.80
2017-10-05T00:24:59.305Z,98.20
2017-10-05T00:27:28.333Z,98.10
2017-10-05T00:29:57.293Z,98.10
2017-10-05T00:32:26.255Z,98.30
2017-10-05T00:34:55.970Z,98.60
2017-10-05T00:37:25.756Z,98.40
2017-10-05T00:39:55.456Z,99.20
2017-10-05T00:42:25.309Z,99.30
2017-10-05T00:44:54.250Z,99.50
2017-10-05T00:47:23.963Z,99.90
2017-10-05T00:49:53.349Z,99.90
2017-10-05T00:52:22.732Z,99.90
2017-10-05T00:54:51.687Z,99.90
2017-10-05T00:57:21.068Z,99.90
2017-10-05T00:59:50.033Z,99.90
2017-10-05T01:02:19.013Z,99.90
2017-10-05T01:04:48.750Z,99.90
2017-10-05T01:07:18.492Z,99.60
2017-10-05T01:09:47.444Z,99.90
2017-10-05T01:12:16.440Z,99.90
2017-10-05T01:14:45.792Z,99.90
2017-10-05T01:17:15.556Z,99.90
2017-10-05T01:19:45.620Z,99.90
2017-10-05T01:22:14.596Z,99.90
2017-10-05T01:24:43.553Z,99.90
2017-10-05T01:27:13.354Z,99.90
2017-10-05T01:29:42.293Z,99.90
2017-10-05T01:32:12.430Z,99.90
2017-10-05T01:34:41.376Z,99.90
2017-10-05T01:37:10.353Z,99.90
2017-10-05T01:39:39.345Z,99.90
2017-10-05T01:42:09.070Z,99.90
2017-10-05T01:44:38.459Z,99.90
2017-10-05T01:47:08.182Z,99.90
2017-10-05T01:49:37.345Z,99.90
2017-10-05T01:52:06.309Z,99.90
2017-10-05T01:54:35.332Z,99.90
2017-10-05T01:57:05.052Z,99.90
2017-10-05T01:59:34.789Z,99.90
2017-10-05T02:02:03.746Z,99.90
2017-10-05T02:04:33.492Z,99.90
2017-10-05T02:07:02.440Z,99.90
2017-10-05T02:09:31.410Z,99.90
2017-10-05T02:12:00.392Z,99.90
2017-10-05T02:14:29.380Z,99.90
2017-10-05T02:16:58.364Z,99.90
2017-10-05T02:19:27.313Z,99.90
2017-10-05T02:21:57.043Z,99.90
2017-10-05T02:24:26.762Z,99.90
2017-10-05T02:26:55.737Z,99.90
2017-10-05T02:29:24.693Z,99.90
2017-10-05T02:31:53.716Z,99.90
2017-10-05T02:34:22.696Z,99.90
2017-10-05T02:36:52.192Z,99.90
2017-10-05T02:39:21.181Z,99.90
2017-10-05T02:41:50.170Z,99.90
2017-10-05T02:44:19.141Z,99.90
2017-10-05T02:46:48.128Z,99.90
2017-10-05T02:49:17.839Z,99.90
2017-10-05T02:51:46.816Z,99.90
2017-10-05T02:54:15.823Z,99.90
2017-10-05T02:56:44.766Z,99.90
2017-10-05T02:59:13.759Z,99.90
2017-10-05T03:01:42.728Z,99.90
2017-10-05T03:04:11.817Z,99.90
2017-10-05T03:06:41.168Z,99.90
2017-10-05T03:09:10.611Z,99.90
2017-10-05T03:11:39.572Z,99.90
2017-10-05T03:14:08.557Z,99.90
2017-10-05T03:16:37.505Z,99.90
2017-10-05T03:19:06.485Z,99.90
2017-10-05T03:21:35.493Z,99.90
2017-10-05T03:24:05.233Z,99.90
2017-10-05T03:26:34.202Z,99.90
2017-10-05T03:29:03.945Z,99.90
2017-10-05T03:31:32.923Z,99.90
2017-10-05T03:34:03.217Z,99.90
2017-10-05T03:36:32.605Z,99.90
2017-10-05T03:39:01.562Z,99.90
2017-10-05T03:41:30.536Z,99.90
2017-10-05T03:44:00.611Z,99.90
2017-10-05T03:46:30.368Z,99.90
2017-10-05T03:48:59.417Z,99.90
2017-10-05T03:51:29.167Z,99.90
2017-10-05T03:53:58.112Z,99.90
2017-10-05T03:56:27.860Z,99.90
2017-10-05T03:58:56.858Z,99.90
2017-10-05T04:01:25.864Z,99.90
2017-10-05T04:03:54.845Z,99.90
2017-10-05T04:06:23.784Z,99.90
2017-10-05T04:08:53.518Z,99.90
2017-10-05T04:11:22.500Z,99.90
2017-10-05T04:13:52.340Z,99.90
2017-10-05T04:16:21.668Z,99.90
2017-10-05T04:18:50.640Z,99.90
2017-10-05T04:21:19.599Z,99.90
2017-10-05T04:23:49.360Z,99.90
2017-10-05T04:26:18.295Z,99.90
2017-10-05T04:28:48.040Z,99.90
2017-10-05T04:31:18.080Z,99.90
2017-10-05T04:33:48.571Z,99.90
2017-10-05T04:36:17.537Z,99.90
2017-10-05T04:38:47.302Z,99.90
2017-10-05T04:41:16.309Z,99.90
2017-10-05T04:43:45.462Z,99.90
2017-10-05T04:46:14.437Z,99.90
2017-10-05T04:48:43.819Z,99.90
2017-10-05T04:51:12.953Z,99.90
2017-10-05T04:53:42.341Z,99.90
2017-10-05T04:56:11.472Z,99.90
2017-10-05T04:58:40.442Z,99.90
2017-10-05T05:01:09.427Z,99.90
2017-10-05T05:03:38.771Z,99.90
2017-10-05T05:06:07.750Z,99.90
2017-10-05T05:08:36.711Z,99.90
2017-10-05T05:11:05.722Z,99.90
2017-10-05T05:13:34.757Z,99.90
2017-10-05T05:16:03.780Z,99.90
2017-10-05T05:18:32.730Z,99.90
2017-10-05T05:21:01.730Z,99.90
2017-10-05T05:23:30.682Z,99.90
2017-10-05T05:25:59.801Z,99.90
2017-10-05T05:28:28.751Z,99.90
2017-10-05T05:30:57.712Z,99.90
2017-10-05T05:33:27.564Z,99.90
2017-10-05T05:35:56.516Z,99.90
2017-10-05T05:38:26.285Z,99.90
2017-10-05T05:40:55.633Z,99.90
2017-10-05T05:43:25.375Z,99.90
2017-10-05T05:45:54.341Z,99.90
2017-10-05T05:48:23.733Z,99.90
2017-10-05T05:50:53.434Z,99.90
2017-10-05T05:53:23.186Z,99.90
2017-10-05T05:55:52.519Z,99.90
2017-10-05T05:58:21.525Z,99.90
2017-10-05T06:00:51.398Z,99.90
2017-10-05T06:03:21.705Z,99.90
2017-10-05T06:05:50.748Z,99.90
2017-10-05T06:08:20.678Z,99.90
2017-10-05T06:10:49.714Z,99.90
2017-10-05T06:13:19.437Z,99.90
2017-10-05T06:15:49.017Z,99.90
2017-10-05T06:18:19.583Z,99.90
2017-10-05T06:20:48.592Z,99.90
2017-10-05T06:23:17.548Z,99.90
2017-10-05T06:25:47.622Z,99.90
2017-10-05T06:28:17.558Z,99.90
2017-10-05T06:30:46.557Z,99.90
2017-10-05T06:33:15.513Z,99.90
2017-10-05T06:35:44.618Z,99.90
2017-10-05T06:38:14.313Z,99.90
2017-10-05T06:40:43.669Z,99.90
2017-10-05T06:43:12.659Z,99.90
2017-10-05T06:45:42.619Z,99.90
2017-10-05T06:48:11.611Z,99.90
2017-10-05T06:50:40.653Z,99.90
2017-10-05T06:53:09.761Z,99.90
2017-10-05T06:55:38.818Z,99.90
2017-10-05T06:58:07.812Z,99.90
2017-10-05T07:00:36.785Z,99.90
2017-10-05T07:03:05.794Z,99.90
2017-10-05T07:05:34.771Z,99.90
2017-10-05T07:08:04.521Z,99.90
2017-10-05T07:10:33.501Z,99.90
2017-10-05T07:13:02.666Z,99.90
2017-10-05T07:15:32.397Z,99.90
2017-10-05T07:18:01.457Z,99.90
2017-10-05T07:20:31.185Z,99.90
2017-10-05T07:23:00.558Z,99.90
2017-10-05T07:25:29.664Z,99.90
2017-10-05T07:27:58.636Z,99.90
2017-10-05T07:30:27.653Z,99.90
2017-10-05T07:32:56.609Z,99.90
2017-10-05T07:35:25.916Z,99.90
2017-10-05T07:37:55.572Z,99.90
2017-10-05T07:40:24.587Z,99.90
2017-10-05T07:42:53.587Z,99.90
2017-10-05T07:45:22.613Z,99.90
2017-10-05T07:47:51.616Z,99.90
2017-10-05T07:50:21.480Z,99.90
2017-10-05T07:52:51.227Z,99.90
2017-10-05T07:55:20.282Z,99.90
2017-10-05T07:57:50.411Z,99.90
2017-10-05T08:00:19.366Z,99.90
2017-10-05T08:02:48.373Z,99.90
2017-10-05T08:05:17.814Z,99.90
2017-10-05T08:07:47.649Z,99.90
2017-10-05T08:10:17.431Z,99.90
2017-10-05T08:12:46.536Z,99.90
2017-10-05T08:15:16.337Z,99.90
2017-10-05T08:17:45.318Z,99.90
2017-10-05T08:20:14.392Z,99.90
2017-10-05T08:22:43.373Z,99.90
2017-10-05T08:25:12.380Z,99.90
2017-10-05T08:27:41.371Z,99.90
2017-10-05T08:30:10.462Z,99.90
2017-10-05T08:32:39.592Z,99.90
2017-10-05T08:35:09.376Z,99.90
2017-10-05T08:37:39.548Z,99.90
2017-10-05T08:40:09.560Z,99.90
2017-10-05T08:42:40.199Z,99.90
2017-10-05T08:45:09.286Z,99.90
2017-10-05T08:47:38.323Z,99.90
2017-10-05T08:50:07.836Z,99.90
2017-10-05T08:52:37.361Z,99.90
2017-10-05T08:55:07.925Z,99.90
2017-10-05T08:57:37.704Z,99.90
2017-10-05T09:00:07.289Z,99.90
2017-10-05T09:02:36.313Z,99.90
2017-10-05T09:05:12.741Z,99.90
2017-10-05T09:07:41.813Z,99.90
2017-10-05T09:10:10.808Z,99.90
2017-10-05T09:12:39.794Z,99.90
2017-10-05T09:15:08.772Z,99.90
2017-10-05T09:17:37.755Z,99.90
2017-10-05T09:20:07.504Z,99.90
2017-10-05T09:22:36.497Z,99.90
2017-10-05T09:25:05.464Z,99.90
2017-10-05T09:27:35.207Z,99.90
2017-10-05T09:30:04.164Z,99.90
2017-10-05T09:32:33.137Z,99.90
2017-10-05T09:35:03.709Z,99.90
2017-10-05T09:37:33.956Z,99.90
2017-10-05T09:40:03.007Z,99.90
2017-10-05T09:42:32.744Z,99.90
2017-10-05T09:45:02.153Z,99.90
2017-10-05T09:47:31.184Z,99.90
2017-10-05T09:50:00.341Z,99.90
2017-10-05T09:52:29.324Z,99.90
2017-10-05T09:54:58.687Z,99.90
2017-10-05T09:57:28.496Z,99.90
2017-10-05T09:59:58.346Z,99.90
2017-10-05T10:02:27.350Z,99.90
2017-10-05T10:04:57.377Z,99.90
2017-10-05T10:07:26.324Z,99.90
2017-10-05T10:09:55.337Z,99.90
2017-10-05T10:12:24.326Z,99.90
2017-10-05T10:14:54.196Z,99.90
2017-10-05T10:17:23.199Z,99.90
2017-10-05T10:19:52.455Z,99.90
2017-10-05T10:22:21.448Z,99.90
2017-10-05T10:24:50.422Z,99.90
2017-10-05T10:27:19.452Z,99.90
2017-10-05T10:29:48.441Z,99.90
2017-10-05T10:32:17.396Z,99.50
2017-10-05T10:34:48.452Z,98.60
2017-10-05T10:37:18.314Z,97.90
2017-10-05T10:39:48.136Z,98.60
2017-10-05T10:42:17.188Z,97.50
2017-10-05T10:44:46.185Z,97.10
2017-10-05T10:47:15.413Z,97.30
2017-10-05T10:49:44.972Z,96.70
2017-10-05T10:52:13.988Z,96.00
2017-10-05T10:54:43.593Z,96.20
2017-10-05T10:57:12.590Z,95.90
2017-10-05T10:59:42.710Z,97.30
2017-10-05T11:02:12.497Z,97.60
2017-10-05T11:04:43.532Z,99.70
2017-10-05T11:07:13.281Z,99.90
2017-10-05T11:09:42.289Z,99.90
2017-10-05T11:12:11.673Z,99.90
2017-10-05T11:14:41.424Z,99.90
2017-10-05T11:17:12.508Z,99.90
2017-10-05T11:19:43.216Z,99.90
2017-10-05T11:22:14.499Z,99.90
2017-10-05T11:24:44.304Z,99.90
2017-10-05T11:27:13.289Z,99.90
2017-10-05T11:29:42.686Z,99.90
2017-10-05T11:32:11.707Z,99.90
2017-10-05T11:34:40.772Z,99.90
2017-10-05T11:37:10.484Z,99.90
2017-10-05T11:39:39.481Z,99.90
2017-10-05T11:42:09.936Z,99.90
2017-10-05T11:44:39.304Z,99.80
2017-10-05T11:47:09.029Z,99.90
2017-10-05T11:49:38.447Z,96.60
2017-10-05T11:52:07.616Z,98.80
2017-10-05T11:54:37.726Z,96.50
2017-10-05T11:57:08.402Z,97.10
2017-10-05T11:59:38.375Z,96.40
2017-10-05T12:02:07.460Z,98.40
2017-10-05T12:04:37.826Z,99.90
2017-10-05T12:07:07.633Z,99.90
2017-10-05T12:09:36.618Z,99.90
2017-10-05T12:12:06.623Z,99.90
2017-10-05T12:14:35.634Z,99.90
2017-10-05T12:17:04.620Z,99.90
2017-10-05T12:19:33.667Z,99.90
2017-10-05T12:22:02.644Z,99.90
2017-10-05T12:24:32.401Z,99.90
2017-10-05T12:27:02.182Z,99.10
2017-10-05T12:29:31.526Z,98.80
2017-10-05T12:32:01.289Z,98.60
2017-10-05T12:34:30.240Z,98.70
2017-10-05T12:36:59.264Z,99.90
2017-10-05T12:39:28.224Z,99.90
2017-10-05T12:41:57.173Z,99.90
2017-10-05T12:44:26.195Z,99.90
2017-10-05T12:46:55.924Z,99.90
2017-10-05T12:49:24.916Z,99.70
2017-10-05T12:51:53.865Z,95.70
2017-10-05T12:54:22.820Z,95.40
2017-10-05T12:56:51.801Z,94.50
2017-10-05T12:59:20.800Z,94.40
2017-10-05T13:01:49.744Z,91.70
2017-10-05T13:04:19.493Z,82.40
2017-10-05T13:06:48.437Z,82.80
2017-10-05T13:09:18.185Z,80.40
2017-10-05T13:11:47.164Z,76.90
2017-10-05T13:14:16.133Z,70.90
2017-10-05T13:16:45.844Z,69.80
2017-10-05T13:19:15.596Z,78.00
2017-10-05T13:21:44.544Z,84.40
2017-10-05T13:24:14.284Z,90.30
2017-10-05T13:26:44.020Z,84.80
2017-10-05T13:29:13.393Z,80.00
2017-10-05T13:31:42.350Z,77.40
2017-10-05T13:34:12.102Z,74.10
2017-10-05T13:36:41.088Z,70.00
2017-10-05T13:39:10.136Z,70.80
2017-10-05T13:41:39.117Z,71.90
2017-10-05T13:44:08.069Z,65.20
2017-10-05T13:46:37.113Z,63.80
2017-10-05T13:49:06.360Z,65.50
2017-10-05T13:51:35.329Z,67.30
2017-10-05T13:54:04.676Z,74.70
2017-10-05T13:56:33.700Z,82.90
2017-10-05T13:59:03.454Z,91.20
2017-10-05T14:01:33.181Z,92.60
2017-10-05T14:04:02.528Z,94.80
2017-10-05T14:06:32.323Z,93.90
2017-10-05T14:09:02.066Z,91.90
2017-10-05T14:11:31.199Z,91.90
2017-10-05T14:14:00.921Z,93.10
2017-10-05T14:16:29.884Z,94.50
2017-10-05T14:18:59.645Z,94.30
2017-10-05T14:21:29.357Z,91.70
2017-10-05T14:23:58.721Z,89.80
2017-10-05T14:26:27.672Z,85.20
2017-10-05T14:28:56.641Z,85.40
2017-10-05T14:31:26.388Z,82.40
2017-10-05T14:33:55.356Z,80.70
2017-10-05T14:36:24.763Z,82.90
2017-10-05T14:38:53.744Z,82.90
2017-10-05T14:41:23.447Z,89.40
2017-10-05T14:43:53.290Z,92.90
2017-10-05T14:46:22.643Z,94.20
2017-10-05T14:48:51.638Z,94.40
2017-10-05T14:51:20.580Z,93.40
2017-10-05T14:53:49.553Z,90.00
2017-10-05T14:56:18.505Z,90.40
2017-10-05T14:58:47.514Z,90.20
2017-10-05T15:01:16.484Z,91.70
2017-10-05T15:03:45.482Z,91.40
2017-10-05T15:06:14.428Z,92.80
2017-10-05T15:08:43.890Z,93.10
2017-10-05T15:11:12.868Z,93.60
2017-10-05T15:13:42.300Z,94.20
2017-10-05T15:16:11.714Z,95.10
2017-10-05T15:18:40.695Z,94.80
2017-10-05T15:21:09.716Z,94.60
2017-10-05T15:23:40.404Z,95.00
2017-10-05T15:26:10.206Z,94.70
2017-10-05T15:28:39.334Z,95.00
2017-10-05T15:31:08.719Z,94.70
2017-10-05T15:33:38.470Z,95.40
2017-10-05T15:36:07.445Z,95.10
2017-10-05T15:38:37.170Z,95.60
2017-10-05T15:41:06.555Z,95.50
2017-10-05T15:43:35.536Z,96.00
2017-10-05T15:46:04.536Z,95.80
2017-10-05T15:48:33.919Z,95.60
2017-10-05T15:51:03.307Z,95.10
2017-10-05T15:53:32.702Z,94.90
2017-10-05T15:56:01.707Z,94.50
2017-10-05T15:58:31.057Z,95.30
2017-10-05T16:01:00.030Z,94.70
2017-10-05T16:03:28.997Z,95.20
2017-10-05T16:05:58.886Z,95.10
2017-10-05T16:08:28.224Z,94.90
2017-10-05T16:10:57.250Z,95.20
2017-10-05T16:13:26.642Z,95.60
2017-10-05T16:15:56.144Z,95.00
2017-10-05T16:18:25.108Z,96.40
2017-10-05T16:20:54.416Z,94.80
2017-10-05T16:23:23.380Z,95.00
2017-10-05T16:25:53.125Z,95.80
2017-10-05T16:28:22.683Z,95.30
2017-10-05T16:30:52.524Z,96.20
2017-10-05T16:33:22.000Z,95.40
2017-10-05T16:35:51.335Z,95.00
2017-10-05T16:38:20.390Z,95.40
2017-10-05T16:40:49.773Z,95.40
2017-10-05T16:43:18.807Z,95.50
2017-10-05T16:45:47.834Z,95.40
2017-10-05T16:48:17.795Z,95.40
2017-10-05T16:50:47.710Z,96.00
2017-10-05T16:53:17.093Z,95.50
2017-10-05T16:55:46.042Z,95.20
2017-10-05T16:58:15.112Z,95.30
2017-10-05T17:00:44.064Z,96.20
2017-10-05T17:03:13.051Z,95.50
2017-10-05T17:05:41.996Z,95.50
2017-10-05T17:08:11.002Z,95.40
2017-10-05T17:10:39.949Z,95.90
2017-10-05T17:13:09.720Z,95.60
2017-10-05T17:15:38.724Z,95.80
2017-10-05T17:18:07.731Z,95.80
2017-10-05T17:20:36.681Z,95.70
2017-10-05T17:23:05.656Z,96.70
2017-10-05T17:25:34.607Z,95.50
2017-10-05T17:28:03.609Z,95.40
2017-10-05T17:30:32.590Z,95.30
2017-10-05T17:33:01.573Z,95.40
2017-10-05T17:35:30.584Z,94.90
2017-10-05T17:37:59.682Z,95.40
2017-10-05T17:40:28.625Z,97.20
2017-10-05T17:42:57.669Z,95.80
2017-10-05T17:45:27.380Z,97.00
2017-10-05T17:47:57.112Z,97.00
2017-10-05T17:50:26.844Z,96.80
2017-10-05T17:52:56.566Z,96.90
2017-10-05T17:55:25.547Z,97.10
2017-10-05T17:57:54.517Z,97.30
2017-10-05T18:00:23.853Z,97.50
2017-10-05T18:02:53.589Z,97.80
2017-10-05T18:05:22.529Z,97.90
2017-10-05T18:07:51.492Z,98.20
2017-10-05T18:10:20.472Z,98.10
2017-10-05T18:12:50.226Z,98.90
2017-10-05T18:15:19.937Z,98.50
2017-10-05T18:17:49.697Z,98.60
2017-10-05T18:20:18.629Z,98.70
2017-10-05T18:22:48.342Z,99.20
2017-10-05T18:25:18.123Z,98.90
2017-10-05T18:27:47.471Z,98.80
2017-10-05T18:30:16.457Z,99.20
2017-10-05T18:32:46.193Z,99.90
2017-10-05T18:35:15.173Z,99.40
2017-10-05T18:37:44.521Z,99.60
2017-10-05T18:40:13.507Z,99.50
2017-10-05T18:42:45.847Z,99.10
2017-10-05T18:45:15.240Z,98.90
2017-10-05T18:47:45.517Z,99.50
2017-10-05T18:50:14.476Z,99.30
2017-10-05T18:52:43.455Z,99.90
2017-10-05T18:55:12.469Z,99.90
2017-10-05T18:57:42.230Z,99.90
2017-10-05T19:00:12.349Z,99.90
2017-10-05T19:02:41.329Z,99.40
2017-10-05T19:05:11.180Z,99.90
2017-10-05T19:07:40.144Z,99.90
2017-10-05T19:10:09.177Z,99.60
2017-10-05T19:12:38.162Z,99.90
2017-10-05T19:15:07.535Z,99.90
2017-10-05T19:17:37.029Z,99.90
2017-10-05T19:20:05.989Z,99.90
2017-10-05T19:22:35.793Z,99.90
2017-10-05T19:25:05.505Z,99.90
2017-10-05T19:27:34.502Z,99.90
2017-10-05T19:30:04.214Z,99.90
2017-10-05T19:32:33.733Z,99.90
2017-10-05T19:35:02.703Z,99.90
2017-10-05T19:37:32.448Z,99.90
2017-10-05T19:40:01.399Z,99.90
2017-10-05T19:42:30.404Z,99.90
2017-10-05T19:44:59.795Z,99.90
2017-10-05T19:47:30.675Z,99.90
2017-10-05T19:49:59.661Z,99.90
2017-10-05T19:52:28.629Z,99.90
2017-10-05T19:54:58.006Z,99.90
2017-10-05T19:57:27.426Z,99.90
2017-10-05T19:59:56.798Z,99.90
2017-10-05T20:02:25.801Z,99.90
2017-10-05T20:04:55.535Z,99.90
2017-10-05T20:07:24.504Z,99.90
2017-10-05T20:09:53.498Z,99.90
2017-10-05T20:12:23.230Z,99.90
2017-10-05T20:14:52.600Z,99.90
2017-10-05T20:17:27.279Z,99.90
2017-10-05T20:20:02.024Z,99.90
2017-10-05T20:22:34.047Z,99.90
2017-10-05T20:25:09.485Z,99.90
2017-10-05T20:27:40.312Z,99.90
2017-10-05T20:30:25.081Z,99.90
2017-10-05T20:33:09.356Z,99.90
2017-10-05T20:35:38.732Z,99.90
2017-10-05T20:38:07.812Z,99.90
2017-10-05T20:40:37.549Z,99.90
2017-10-05T20:43:06.566Z,99.90
2017-10-05T20:45:35.558Z,99.90
2017-10-05T20:48:04.605Z,99.90
2017-10-05T20:50:33.638Z,99.90
2017-10-05T20:53:02.980Z,99.90
2017-10-05T20:55:32.785Z,99.90
2017-10-05T20:58:02.493Z,99.90
2017-10-05T21:00:32.257Z,99.90
2017-10-05T21:03:01.631Z,99.90
2017-10-05T21:05:30.628Z,99.90
2017-10-05T21:07:59.606Z,99.90
2017-10-05T21:10:29.345Z,99.90
2017-10-05T21:12:58.713Z,99.90
2017-10-05T21:15:27.710Z,99.90
2017-10-05T21:17:56.669Z,99.90
2017-10-05T21:20:25.643Z,99.90
2017-10-05T21:22:54.600Z,99.90
2017-10-05T21:25:23.635Z,99.90
2017-10-05T21:27:52.571Z,99.90
2017-10-05T21:30:21.978Z,99.90
2017-10-05T21:32:50.944Z,99.90
2017-10-05T21:35:19.902Z,99.90
2017-10-05T21:37:48.898Z,99.90
2017-10-05T21:40:18.251Z,99.90
2017-10-05T21:42:47.220Z,99.90
2017-10-05T21:45:16.945Z,99.90
2017-10-05T21:47:45.908Z,99.90
2017-10-05T21:50:15.637Z,99.90
2017-10-05T21:52:45.385Z,99.90
2017-10-05T21:55:14.738Z,99.90
2017-10-05T21:57:44.590Z,99.90
2017-10-05T22:00:13.544Z,99.90
2017-10-05T22:02:43.432Z,99.90
2017-10-05T22:05:12.412Z,99.90
2017-10-05T22:07:41.356Z,99.90
2017-10-05T22:10:10.329Z,99.90
2017-10-05T22:12:40.097Z,99.90
2017-10-05T22:15:09.820Z,99.90
2017-10-05T22:17:38.809Z,99.90
2017-10-05T22:20:07.760Z,99.90
2017-10-05T22:22:36.754Z,99.90
2017-10-05T22:25:05.700Z,99.90
2017-10-05T22:27:36.184Z,99.90
2017-10-05T22:30:05.136Z,99.90
2017-10-05T22:32:34.537Z,99.90
2017-10-05T22:35:04.274Z,99.90
2017-10-05T22:37:33.648Z,99.90
2017-10-05T22:40:03.404Z,99.90
2017-10-05T22:42:32.758Z,99.90
2017-10-05T22:45:01.751Z,99.90
2017-10-05T22:47:30.708Z,99.90
2017-10-05T22:49:59.684Z,99.90
2017-10-05T22:52:29.438Z,99.90
2017-10-05T22:54:58.822Z,99.90
2017-10-05T22:57:28.548Z,99.90
2017-10-05T22:59:57.638Z,99.90
2017-10-05T23:02:26.593Z,99.90
2017-10-05T23:04:55.548Z,99.90
2017-10-05T23:07:24.684Z,99.90
2017-10-05T23:09:53.632Z,99.90
2017-10-05T23:12:22.598Z,99.90
2017-10-05T23:14:51.697Z,99.90
2017-10-05T23:17:21.426Z,99.90
2017-10-05T23:19:50.999Z,99.90
2017-10-05T23:22:19.961Z,99.90
2017-10-05T23:24:49.736Z,99.90
2017-10-05T23:27:19.469Z,99.90
2017-10-05T23:29:48.445Z,99.90
2017-10-05T23:32:17.402Z,99.90
2017-10-05T23:34:47.245Z,99.90
2017-10-05T23:37:16.231Z,99.90
2017-10-05T23:39:46.004Z,99.90
2017-10-05T23:42:14.998Z,99.90
2017-10-05T23:44:44.700Z,99.90
2017-10-05T23:47:13.702Z,99.90
2017-10-05T23:49:42.645Z,99.90
2017-10-05T23:52:12.408Z,99.90
2017-10-05T23:54:42.098Z,99.90
2017-10-05T23:57:11.077Z,99.90
2017-10-05T23:59:40.440Z,99.90
